Time;durP1;ratioP1;P1;durP2;ratioP2;P2;SDS_P1;SDS_P2;PMS_P1;PMS_P2;Temp;Humidity;BMP_temperature;BMP_pressure;BME280_temperature;BME280_humidity;BME280_pressure;Samples;Min_cycle;Max_cycle;Signal;HPM_P1;HPM_P2
2023/06/21 00:00:59;;;;;;;4.10;2.73;;;21.40;99.90;;;;;;5034130;28;20465;-80
2023/06/21 00:03:26;;;;;;;6.07;3.60;;;21.40;99.90;;;;;;5034076;28;20494;-80
2023/06/21 00:05:53;;;;;;;5.60;3.23;;;21.40;99.90;;;;;;5033911;28;20511;-80
2023/06/21 00:08:21;;;;;;;5.60;3.90;;;21.30;99.90;;;;;;5033646;28;20465;-82
2023/06/21 00:10:48;;;;;;;4.87;3.60;;;21.30;99.90;;;;;;5034314;28;20449;-81
2023/06/21 00:13:15;;;;;;;3.33;3.03;;;21.20;99.90;;;;;;5033637;28;20441;-81
2023/06/21 00:15:42;;;;;;;4.53;3.07;;;21.20;99.90;;;;;;5033817;28;20442;-81
2023/06/21 00:18:09;;;;;;;5.03;3.30;;;21.10;99.90;;;;;;5033435;28;21032;-81
2023/06/21 00:20:37;;;;;;;7.13;4.07;;;21.10;99.90;;;;;;5033767;28;20458;-81
2023/06/21 00:23:07;;;;;;;5.07;4.00;;;21.10;99.90;;;;;;5033664;28;20533;-81
2023/06/21 00:25:35;;;;;;;4.27;3.87;;;21.00;99.90;;;;;;5033628;28;20585;-81
2023/06/21 00:28:02;;;;;;;3.63;3.10;;;21.00;99.90;;;;;;5033111;28;20493;-81
2023/06/21 00:30:29;;;;;;;5.03;3.53;;;21.00;99.90;;;;;;5033623;28;20458;-81
2023/06/21 00:32:56;;;;;;;8.47;3.77;;;21.00;99.90;;;;;;5033281;28;20485;-81
2023/06/21 00:35:22;;;;;;;6.97;4.27;;;21.00;99.90;;;;;;5033451;28;20450;-81
2023/06/21 00:37:49;;;;;;;6.90;3.70;;;21.00;99.90;;;;;;5033437;28;20473;-81
2023/06/21 00:40:18;;;;;;;6.27;3.70;;;21.00;99.90;;;;;;5033489;28;20446;-81
2023/06/21 00:42:47;;;;;;;5.27;4.03;;;20.90;99.90;;;;;;5033469;28;20454;-81
2023/06/21 00:45:15;;;;;;;5.83;3.87;;;20.90;99.90;;;;;;5033371;28;20493;-81
2023/06/21 00:47:42;;;;;;;5.77;3.60;;;20.90;99.90;;;;;;5033039;28;20504;-81
2023/06/21 00:50:11;;;;;;;4.70;3.50;;;20.80;99.90;;;;;;5033949;28;20507;-81
2023/06/21 00:52:38;;;;;;;6.43;3.70;;;20.80;99.90;;;;;;5033385;28;20537;-80
2023/06/21 00:55:06;;;;;;;4.90;3.67;;;20.80;99.90;;;;;;5032986;28;20446;-80
2023/06/21 00:57:33;;;;;;;4.13;3.23;;;20.80;99.90;;;;;;5033207;28;20532;-80
2023/06/21 01:00:01;;;;;;;5.40;3.43;;;20.80;99.90;;;;;;5033323;28;20889;-81
2023/06/21 01:02:28;;;;;;;6.13;4.27;;;20.70;99.90;;;;;;5033777;28;20455;-81
2023/06/21 01:04:55;;;;;;;7.30;3.60;;;20.70;99.90;;;;;;5033197;28;20478;-81
2023/06/21 01:07:29;;;;;;;4.30;3.67;;;20.70;99.90;;;;;;5033123;28;20462;-80
2023/06/21 01:10:08;;;;;;;4.60;3.47;;;20.60;99.90;;;;;;5033496;28;20430;-80
2023/06/21 01:12:50;;;;;;;7.60;4.30;;;20.60;99.90;;;;;;5033639;28;20860;-80
2023/06/21 01:15:23;;;;;;;3.43;2.50;;;20.60;99.90;;;;;;5033197;28;20873;-80
2023/06/21 01:17:52;;;;;;;4.87;3.70;;;20.60;99.90;;;;;;5033074;28;20565;-80
2023/06/21 01:20:24;;;;;;;5.80;4.17;;;20.50;99.90;;;;;;5032830;28;20442;-81
2023/06/21 01:23:09;;;;;;;5.87;3.77;;;20.50;99.90;;;;;;5032797;28;20438;-81
2023/06/21 01:25:45;;;;;;;5.00;3.67;;;20.40;99.90;;;;;;5033033;28;20467;-80
2023/06/21 01:28:31;;;;;;;5.70;4.33;;;20.40;99.90;;;;;;5032756;28;20531;-80
2023/06/21 01:31:02;;;;;;;6.33;4.00;;;20.40;99.90;;;;;;5033017;28;20453;-80
2023/06/21 01:33:30;;;;;;;5.57;3.93;;;20.30;99.90;;;;;;5033031;28;20434;-80
2023/06/21 01:35:57;;;;;;;4.90;3.13;;;20.30;99.90;;;;;;5036650;28;20446;-80
2023/06/21 01:38:24;;;;;;;6.20;3.90;;;20.30;99.90;;;;;;5036571;28;20549;-80
2023/06/21 01:40:51;;;;;;;4.23;3.80;;;20.30;99.90;;;;;;5036758;28;20446;-80
2023/06/21 01:43:19;;;;;;;4.90;3.77;;;20.30;99.90;;;;;;5036427;28;20434;-80
2023/06/21 01:45:46;;;;;;;4.77;3.27;;;20.30;99.90;;;;;;5036541;28;20492;-80
2023/06/21 01:48:15;;;;;;;6.73;4.30;;;20.20;99.90;;;;;;5036519;28;20474;-80
2023/06/21 01:50:43;;;;;;;6.27;3.97;;;20.20;99.90;;;;;;5036254;28;20942;-80
2023/06/21 01:53:13;;;;;;;5.67;3.57;;;20.10;99.90;;;;;;5036489;28;20446;-80
2023/06/21 01:55:45;;;;;;;7.20;3.70;;;20.20;99.90;;;;;;5036443;28;20473;-80
2023/06/21 01:58:12;;;;;;;5.67;3.67;;;20.20;99.90;;;;;;5036345;28;20493;-80
2023/06/21 02:00:40;;;;;;;6.13;3.10;;;20.10;99.90;;;;;;5036390;28;20900;-80
2023/06/21 02:03:09;;;;;;;6.27;4.33;;;20.10;99.90;;;;;;5036230;28;20812;-80
2023/06/21 02:05:38;;;;;;;5.93;3.80;;;20.10;99.90;;;;;;5036168;28;20486;-80
2023/06/21 02:08:06;;;;;;;6.47;4.17;;;20.10;99.90;;;;;;5036155;28;20470;-80
2023/06/21 02:10:33;;;;;;;6.07;4.07;;;20.00;99.90;;;;;;5036174;28;20504;-80
2023/06/21 02:13:00;;;;;;;5.40;4.10;;;20.00;99.90;;;;;;5036120;28;20458;-80
2023/06/21 02:15:26;;;;;;;4.83;3.87;;;20.00;99.90;;;;;;5036095;28;20508;-81
2023/06/21 02:17:53;;;;;;;5.97;4.20;;;20.00;99.90;;;;;;5035960;28;20466;-80
2023/06/21 02:20:22;;;;;;;5.53;4.10;;;20.00;99.90;;;;;;5035995;28;20530;-80
2023/06/21 02:22:50;;;;;;;7.00;4.20;;;20.00;99.90;;;;;;5035624;28;20938;-80
2023/06/21 02:25:17;;;;;;;6.60;4.40;;;19.90;99.90;;;;;;5035514;28;21016;-80
2023/06/21 02:27:44;;;;;;;4.10;3.50;;;19.90;99.90;;;;;;5035454;28;20493;-80
2023/06/21 02:30:12;;;;;;;5.00;4.13;;;19.90;99.90;;;;;;5035831;28;20522;-80
2023/06/21 02:32:39;;;;;;;6.27;3.60;;;19.90;99.90;;;;;;5035811;28;20450;-81
2023/06/21 02:35:07;;;;;;;6.90;4.20;;;19.90;99.90;;;;;;5035485;28;20947;-81
2023/06/21 02:37:33;;;;;;;4.10;3.43;;;19.90;99.90;;;;;;5035608;28;20470;-81
2023/06/21 02:40:09;;;;;;;7.20;4.10;;;19.80;99.90;;;;;;5035683;28;20451;-81
2023/06/21 02:42:36;;;;;;;6.70;4.63;;;19.80;99.90;;;;;;5036215;28;20445;-80
2023/06/21 02:45:03;;;;;;;5.20;3.60;;;19.80;99.90;;;;;;5035149;28;20486;-80
2023/06/21 02:47:30;;;;;;;10.43;4.13;;;19.80;99.90;;;;;;5034734;28;20466;-80
2023/06/21 02:49:57;;;;;;;5.97;4.07;;;19.80;99.90;;;;;;5035390;28;20970;-80
2023/06/21 02:52:24;;;;;;;5.70;3.87;;;19.80;99.90;;;;;;5035137;28;20950;-80
2023/06/21 02:54:52;;;;;;;5.33;3.40;;;19.80;99.90;;;;;;5035378;28;20450;-80
2023/06/21 02:57:20;;;;;;;5.17;3.83;;;19.80;99.90;;;;;;5035257;28;20474;-80
2023/06/21 02:59:49;;;;;;;6.93;4.97;;;19.80;99.90;;;;;;5035574;28;20457;-80
2023/06/21 03:02:16;;;;;;;4.80;3.93;;;19.80;99.90;;;;;;5035296;28;20457;-80
2023/06/21 03:04:43;;;;;;;7.90;4.80;;;19.90;99.90;;;;;;5035339;28;20470;-81
2023/06/21 03:07:10;;;;;;;5.87;4.37;;;19.80;99.90;;;;;;5035123;28;20473;-81
2023/06/21 03:09:37;;;;;;;10.60;4.80;;;19.90;99.90;;;;;;5034778;28;20973;-81
2023/06/21 03:12:07;;;;;;;7.17;4.10;;;19.90;99.90;;;;;;5034798;28;20432;-80
2023/06/21 03:14:37;;;;;;;6.60;4.00;;;19.90;99.90;;;;;;5035145;28;20439;-81
2023/06/21 03:17:04;;;;;;;4.67;3.83;;;19.90;99.90;;;;;;5034946;28;20506;-81
2023/06/21 03:19:31;;;;;;;5.10;3.57;;;19.90;99.90;;;;;;5035159;28;20442;-81
2023/06/21 03:21:58;;;;;;;15.37;5.07;;;20.00;99.90;;;;;;5034824;28;20455;-81
2023/06/21 03:24:26;;;;;;;7.60;4.17;;;20.00;99.90;;;;;;5035655;28;20754;-80
2023/06/21 03:26:53;;;;;;;6.83;4.83;;;20.00;99.90;;;;;;5034395;28;20504;-80
2023/06/21 03:29:20;;;;;;;4.50;3.20;;;20.00;99.90;;;;;;5034767;28;20454;-80
2023/06/21 03:31:48;;;;;;;4.87;4.20;;;20.00;99.90;;;;;;5034626;28;20478;-81
2023/06/21 03:34:15;;;;;;;5.63;3.60;;;20.10;99.90;;;;;;5034649;28;20442;-81
2023/06/21 03:36:41;;;;;;;4.10;3.70;;;20.10;99.90;;;;;;5034494;28;20467;-81
2023/06/21 03:39:08;;;;;;;6.90;4.70;;;20.10;99.90;;;;;;5034499;28;20798;-81
2023/06/21 03:41:35;;;;;;;5.93;4.20;;;20.10;99.90;;;;;;5034149;28;20446;-82
2023/06/21 03:44:02;;;;;;;7.83;4.50;;;20.10;99.90;;;;;;5034399;28;20457;-83
2023/06/21 03:46:28;;;;;;;9.70;4.60;;;19.90;99.90;;;;;;5034236;28;20486;-84
2023/06/21 03:48:58;;;;;;;5.77;4.50;;;19.70;99.90;;;;;;5034048;28;20946;-84
2023/06/21 03:51:25;;;;;;;5.77;4.20;;;19.40;99.90;;;;;;5034305;28;20446;-83
2023/06/21 03:53:52;;;;;;;7.30;3.83;;;19.30;99.90;;;;;;5034252;28;20477;-83
2023/06/21 03:56:19;;;;;;;4.47;3.73;;;19.20;99.90;;;;;;5033833;28;20462;-82
2023/06/21 03:58:45;;;;;;;5.60;3.77;;;19.00;99.90;;;;;;5033791;28;20489;-83
2023/06/21 04:01:12;;;;;;;6.73;4.20;;;18.90;99.90;;;;;;5033779;28;20842;-82
2023/06/21 04:03:39;;;;;;;5.03;3.60;;;18.90;99.90;;;;;;5034022;28;20443;-82
2023/06/21 04:06:07;;;;;;;5.30;3.47;;;18.90;99.90;;;;;;5033918;28;20494;-83
2023/06/21 04:08:33;;;;;;;6.23;4.53;;;18.90;99.90;;;;;;5033879;28;20470;-83
2023/06/21 04:11:01;;;;;;;6.63;4.03;;;18.80;99.90;;;;;;5033622;28;20957;-82
2023/06/21 04:13:27;;;;;;;4.47;3.80;;;18.80;99.90;;;;;;5033896;28;20446;-82
2023/06/21 04:15:54;;;;;;;7.73;4.43;;;18.80;99.90;;;;;;5033810;28;20439;-83
2023/06/21 04:18:21;;;;;;;5.57;4.03;;;18.80;99.90;;;;;;5033730;28;20490;-82
2023/06/21 04:20:49;;;;;;;9.10;4.23;;;18.80;99.90;;;;;;5033458;28;20447;-82
2023/06/21 04:23:17;;;;;;;10.50;3.87;;;18.70;99.90;;;;;;5033714;28;20450;-82
2023/06/21 04:25:44;;;;;;;6.33;3.40;;;18.70;99.90;;;;;;5033559;28;20479;-82
2023/06/21 04:28:11;;;;;;;4.60;4.07;;;18.70;99.90;;;;;;5033100;28;21013;-82
2023/06/21 04:30:37;;;;;;;7.43;4.53;;;18.70;99.90;;;;;;5034144;28;20791;-82
2023/06/21 04:33:04;;;;;;;7.30;4.07;;;18.70;99.90;;;;;;5033620;28;20445;-82
2023/06/21 04:35:33;;;;;;;7.30;4.00;;;18.70;99.90;;;;;;5033242;28;21057;-82
2023/06/21 04:38:00;;;;;;;3.70;3.27;;;18.80;99.90;;;;;;5033119;28;20481;-82
2023/06/21 04:40:28;;;;;;;7.80;3.87;;;18.80;99.90;;;;;;5033196;28;20870;-82
2023/06/21 04:42:55;;;;;;;4.63;3.10;;;18.90;99.90;;;;;;5033480;28;20549;-82
2023/06/21 04:45:22;;;;;;;6.33;4.23;;;19.00;99.90;;;;;;5033382;28;20454;-83
2023/06/21 04:47:49;;;;;;;5.63;3.00;;;19.00;99.90;;;;;;5033959;28;20471;-82
2023/06/21 04:50:16;;;;;;;4.00;3.10;;;19.10;99.90;;;;;;5033413;28;20811;-82
2023/06/21 04:52:48;;;;;;;8.83;3.40;;;19.20;99.90;;;;;;5033424;28;20442;-83
2023/06/21 04:55:17;;;;;;;5.30;3.67;;;19.30;99.90;;;;;;5033628;28;20521;-82
2023/06/21 04:57:46;;;;;;;7.90;4.17;;;19.40;99.90;;;;;;5033181;28;20816;-83
2023/06/21 05:00:15;;;;;;;11.03;4.00;;;19.40;99.90;;;;;;5033273;28;20473;-83
2023/06/21 05:02:41;;;;;;;10.30;5.13;;;19.50;99.90;;;;;;5033241;28;20445;-83
2023/06/21 05:05:08;;;;;;;7.33;4.43;;;19.50;99.90;;;;;;5033208;28;20443;-83
2023/06/21 05:07:37;;;;;;;6.47;3.70;;;19.60;99.90;;;;;;5032845;28;20880;-82
2023/06/21 05:10:05;;;;;;;5.57;3.53;;;19.60;99.90;;;;;;5035673;28;20470;-83
2023/06/21 05:12:32;;;;;;;5.07;3.27;;;19.60;99.90;;;;;;5037291;28;20442;-83
2023/06/21 05:15:00;;;;;;;6.30;3.57;;;19.60;99.90;;;;;;5037221;28;20454;-83
2023/06/21 05:17:26;;;;;;;5.63;4.27;;;19.70;99.90;;;;;;5037078;28;20470;-83
2023/06/21 05:19:53;;;;;;;4.90;3.60;;;19.80;99.90;;;;;;5036788;28;20526;-83
2023/06/21 05:22:20;;;;;;;6.77;3.50;;;19.80;99.90;;;;;;5037071;28;20442;-83
2023/06/21 05:24:46;;;;;;;4.17;2.67;;;19.90;99.90;;;;;;5037048;28;20807;-83
2023/06/21 05:27:13;;;;;;;13.73;3.20;;;20.00;99.90;;;;;;5036546;28;20490;-82
2023/06/21 05:29:40;;;;;;;4.93;3.27;;;20.10;99.90;;;;;;5036947;28;20430;-83
2023/06/21 05:32:08;;;;;;;4.70;3.37;;;20.10;99.90;;;;;;5036591;28;20447;-82
2023/06/21 05:34:35;;;;;;;4.57;3.20;;;20.30;99.90;;;;;;5036532;28;20454;-83
2023/06/21 05:37:02;;;;;;;3.83;3.10;;;20.30;99.90;;;;;;5036753;28;20462;-83
2023/06/21 05:39:29;;;;;;;4.00;2.70;;;20.40;99.90;;;;;;5036430;28;20822;-82
2023/06/21 05:41:55;;;;;;;14.97;3.60;;;20.50;99.90;;;;;;5036391;28;20942;-83
2023/06/21 05:44:22;;;;;;;5.40;2.23;;;20.60;99.90;;;;;;5036683;28;20449;-83
2023/06/21 05:46:49;;;;;;;3.67;2.53;;;20.70;99.90;;;;;;5036462;28;20833;-83
2023/06/21 05:49:18;;;;;;;2.30;2.00;;;20.90;99.90;;;;;;5036381;28;20450;-82
2023/06/21 05:51:44;;;;;;;5.33;2.30;;;21.00;99.90;;;;;;5036592;28;20438;-82
2023/06/21 05:54:12;;;;;;;6.27;3.10;;;21.10;99.90;;;;;;5036524;28;20450;-83
2023/06/21 05:56:38;;;;;;;2.63;2.17;;;21.20;99.90;;;;;;5036375;28;20458;-83
2023/06/21 05:59:05;;;;;;;3.50;2.27;;;21.30;99.90;;;;;;5036432;28;20461;-83
2023/06/21 06:01:32;;;;;;;3.73;2.83;;;21.40;99.90;;;;;;5036235;28;20458;-83
2023/06/21 06:03:59;;;;;;;4.40;3.30;;;21.50;99.90;;;;;;5036054;28;20445;-83
2023/06/21 06:06:35;;;;;;;4.70;3.00;;;21.50;99.90;;;;;;5035816;28;21012;-83
2023/06/21 06:09:02;;;;;;;5.27;3.70;;;21.50;99.90;;;;;;5036324;28;20432;-83
2023/06/21 06:11:29;;;;;;;7.27;3.40;;;21.50;99.90;;;;;;5036951;28;20810;-83
2023/06/21 06:13:55;;;;;;;3.90;3.37;;;21.60;99.90;;;;;;5036095;28;20453;-83
2023/06/21 06:16:22;;;;;;;3.47;3.17;;;21.50;99.90;;;;;;5036107;28;20473;-83
2023/06/21 06:18:49;;;;;;;3.63;2.90;;;21.60;99.90;;;;;;5035740;28;20973;-83
2023/06/21 06:21:21;;;;;;;3.30;3.00;;;21.80;99.90;;;;;;5035797;28;20442;-83
2023/06/21 06:23:50;;;;;;;3.87;3.07;;;22.00;99.90;;;;;;5035965;28;20466;-82
2023/06/21 06:26:18;;;;;;;3.50;2.60;;;22.10;99.90;;;;;;5035545;28;20612;-83
2023/06/21 06:28:45;;;;;;;3.10;2.60;;;22.30;99.90;;;;;;5035307;28;20490;-83
2023/06/21 06:31:12;;;;;;;4.40;2.90;;;22.60;99.90;;;;;;5035507;28;20809;-82
2023/06/21 06:33:38;;;;;;;3.42;3.13;;;22.90;99.90;;;;;;5035797;28;20207;-82
2023/06/21 06:36:06;;;;;;;2.63;2.28;;;23.20;99.90;;;;;;5035820;28;20233;-82
2023/06/21 06:38:32;;;;;;;3.50;3.20;;;23.40;99.90;;;;;;5035383;28;20230;-82
2023/06/21 06:41:00;;;;;;;4.95;2.45;;;23.60;99.90;;;;;;5035709;28;20207;-83
2023/06/21 06:43:27;;;;;;;3.75;2.38;;;23.70;99.90;;;;;;5035598;28;20207;-82
2023/06/21 06:45:54;;;;;;;3.10;2.83;;;23.80;99.90;;;;;;5035514;28;20207;-82
2023/06/21 06:48:21;;;;;;;4.38;2.88;;;23.90;99.90;;;;;;5035473;28;20230;-82
2023/06/21 06:50:47;;;;;;;3.08;2.42;;;24.00;99.90;;;;;;5035464;28;20214;-82
2023/06/21 06:53:14;;;;;;;2.90;2.45;;;24.20;99.90;;;;;;5035434;28;20228;-83
2023/06/21 06:55:41;;;;;;;3.28;2.97;;;24.40;99.90;;;;;;5035149;28;20203;-83
2023/06/21 06:58:09;;;;;;;2.80;2.40;;;24.60;99.90;;;;;;5034938;28;20711;-83
2023/06/21 07:00:36;;;;;;;6.65;2.33;;;24.60;99.90;;;;;;5035337;28;20265;-83
2023/06/21 07:03:03;;;;;;;5.53;2.78;;;24.50;99.90;;;;;;5035225;28;20235;-83
2023/06/21 07:05:30;;;;;;;9.05;2.00;;;24.60;99.90;;;;;;5035206;28;20222;-83
2023/06/21 07:07:56;;;;;;;2.58;2.38;;;24.60;99.90;;;;;;5035068;28;20235;-82
2023/06/21 07:10:23;;;;;;;3.15;2.35;;;24.70;99.90;;;;;;5034794;28;20572;-83
2023/06/21 07:12:50;;;;;;;2.92;2.05;;;24.80;99.90;;;;;;5034838;28;20207;-83
2023/06/21 07:15:18;;;;;;;1.80;1.70;;;24.80;99.90;;;;;;5035089;28;20203;-83
2023/06/21 07:17:45;;;;;;;2.17;2.00;;;24.80;99.90;;;;;;5034943;28;20226;-83
2023/06/21 07:20:12;;;;;;;6.30;3.17;;;24.90;99.90;;;;;;5034916;28;20208;-83
2023/06/21 07:22:39;;;;;;;2.00;1.90;;;24.70;99.90;;;;;;5034954;28;20572;-83
2023/06/21 07:25:07;;;;;;;2.40;1.83;;;24.90;99.90;;;;;;5034543;28;20671;-83
2023/06/21 07:27:33;;;;;;;2.00;1.70;;;25.10;99.90;;;;;;5034128;28;20596;-83
2023/06/21 07:30:02;;;;;;;1.67;1.50;;;25.40;99.90;;;;;;5034733;28;20294;-83
2023/06/21 07:32:30;;;;;;;1.80;1.48;;;25.40;99.90;;;;;;5033763;28;20298;-82
2023/06/21 07:34:57;;;;;;;1.98;1.40;;;25.30;99.90;;;;;;5035414;28;20191;-82
2023/06/21 07:37:25;;;;;;;2.47;1.98;;;25.10;99.90;;;;;;5034556;28;20246;-82
2023/06/21 07:39:52;;;;;;;3.65;2.03;;;24.70;99.90;;;;;;5034507;28;20222;-82
2023/06/21 07:42:18;;;;;;;3.65;1.52;;;24.40;99.90;;;;;;5034202;28;20572;-82
2023/06/21 07:44:45;;;;;;;2.85;1.52;;;24.30;99.90;;;;;;5034486;28;20206;-82
2023/06/21 07:47:12;;;;;;;1.40;1.30;;;24.10;99.90;;;;;;5034216;28;20227;-82
2023/06/21 07:49:40;;;;;;;3.13;1.33;;;24.10;99.90;;;;;;5034363;28;20203;-82
2023/06/21 07:52:07;;;;;;;1.80;1.20;;;24.10;99.90;;;;;;5034312;28;20204;-82
2023/06/21 07:54:33;;;;;;;2.20;2.00;;;24.20;99.90;;;;;;5034285;28;20200;-82
2023/06/21 07:57:00;;;;;;;2.53;2.33;;;24.30;99.90;;;;;;5034141;28;20310;-82
2023/06/21 07:59:27;;;;;;;2.13;1.92;;;24.30;99.90;;;;;;5033832;28;20199;-82
2023/06/21 08:01:54;;;;;;;2.13;1.90;;;24.30;99.90;;;;;;5033741;28;20210;-82
2023/06/21 08:04:20;;;;;;;2.85;2.58;;;24.20;99.90;;;;;;5034044;28;20207;-82
2023/06/21 08:06:48;;;;;;;2.70;2.10;;;24.10;99.90;;;;;;5033853;28;20234;-82
2023/06/21 08:09:15;;;;;;;2.83;2.25;;;24.10;99.90;;;;;;5034047;28;20216;-81
2023/06/21 08:11:42;;;;;;;2.53;2.30;;;23.90;99.90;;;;;;5033988;28;20207;-81
2023/06/21 08:14:09;;;;;;;4.38;2.63;;;23.80;99.90;;;;;;5033934;28;20211;-81
2023/06/21 08:16:37;;;;;;;2.33;1.95;;;23.70;99.90;;;;;;5033817;28;20207;-81
2023/06/21 08:19:04;;;;;;;1.92;1.80;;;23.60;99.90;;;;;;5033860;28;20238;-81
2023/06/21 08:21:30;;;;;;;3.40;2.47;;;23.50;99.90;;;;;;5034543;28;20265;-82
2023/06/21 08:23:59;;;;;;;2.10;1.90;;;23.40;99.90;;;;;;5033774;28;20212;-82
2023/06/21 08:26:25;;;;;;;3.05;2.50;;;23.40;99.90;;;;;;5033597;28;20203;-82
2023/06/21 08:28:52;;;;;;;2.53;2.33;;;23.30;99.90;;;;;;5033248;28;20603;-82
2023/06/21 08:31:19;;;;;;;2.35;2.05;;;23.20;99.90;;;;;;5033421;28;20701;-82
2023/06/21 08:33:45;;;;;;;3.05;2.78;;;23.10;99.90;;;;;;5034188;28;20203;-88
2023/06/21 08:36:12;;;;;;;3.23;2.40;;;23.10;99.90;;;;;;5033902;28;20203;-82
2023/06/21 08:38:39;;;;;;;4.50;2.78;;;23.00;99.90;;;;;;5033220;28;20241;-82
2023/06/21 08:41:09;;;;;;;3.17;2.40;;;22.90;99.90;;;;;;5033568;28;20199;-83
2023/06/21 08:43:36;;;;;;;3.57;2.13;;;22.70;99.90;;;;;;5032708;28;20235;-84
2023/06/21 08:46:06;;;;;;;2.27;2.03;;;22.60;99.90;;;;;;5033488;28;20203;-83
2023/06/21 08:48:36;;;;;;;3.90;2.33;;;22.20;99.90;;;;;;5033320;28;20591;-84
2023/06/21 08:51:05;;;;;;;4.07;2.70;;;21.90;99.90;;;;;;5033445;28;20438;-83
2023/06/21 08:53:39;;;;;;;4.80;3.10;;;21.60;99.90;;;;;;5033423;28;20439;-84
2023/06/21 08:56:10;;;;;;;7.00;3.30;;;21.30;99.90;;;;;;5033154;28;20776;-84
2023/06/21 08:58:43;;;;;;;6.10;3.27;;;21.10;99.90;;;;;;5033031;28;20999;-84
2023/06/21 09:01:11;;;;;;;7.20;3.40;;;20.80;99.90;;;;;;5033412;28;20428;-84
2023/06/21 09:03:45;;;;;;;4.13;3.03;;;20.70;99.90;;;;;;5032977;28;20447;-84
2023/06/21 09:06:15;;;;;;;8.30;3.20;;;20.50;99.90;;;;;;5033303;28;20434;-83
2023/06/21 09:08:44;;;;;;;8.00;3.33;;;20.30;99.90;;;;;;5032748;28;21016;-83
2023/06/21 09:11:14;;;;;;;7.57;3.80;;;20.20;99.90;;;;;;5033198;28;20537;-83
2023/06/21 09:13:44;;;;;;;6.07;3.27;;;20.00;99.90;;;;;;5033429;28;20446;-83
2023/06/21 09:16:12;;;;;;;7.10;3.53;;;19.90;99.90;;;;;;5033186;28;20493;-83
2023/06/21 09:18:40;;;;;;;6.63;3.40;;;19.90;99.90;;;;;;5033049;28;20466;-83
2023/06/21 09:21:09;;;;;;;4.37;2.83;;;19.90;99.90;;;;;;5033136;28;20487;-83
2023/06/21 09:23:36;;;;;;;3.63;3.10;;;19.80;99.90;;;;;;5033068;28;20455;-83
2023/06/21 09:26:03;;;;;;;8.07;3.40;;;19.70;99.90;;;;;;5032793;28;20430;-84
2023/06/21 09:28:32;;;;;;;8.93;3.40;;;19.70;99.90;;;;;;5032407;28;20490;-83
2023/06/21 09:31:00;;;;;;;5.60;3.20;;;19.70;99.90;;;;;;5033003;28;20458;-84
2023/06/21 09:33:27;;;;;;;5.57;3.10;;;19.60;99.90;;;;;;5032945;28;20457;-83
2023/06/21 09:35:56;;;;;;;6.33;2.63;;;19.60;99.90;;;;;;5032955;28;20457;-82
2023/06/21 09:38:24;;;;;;;5.40;2.80;;;19.40;99.90;;;;;;5032886;28;20482;-82
2023/06/21 09:40:52;;;;;;;5.97;3.53;;;19.20;99.90;;;;;;5032890;28;20451;-81
2023/06/21 09:43:20;;;;;;;5.47;3.23;;;19.10;99.90;;;;;;5032623;28;20958;-81
2023/06/21 09:46:02;;;;;;;5.60;3.90;;;19.00;99.90;;;;;;5032893;28;20450;-82
2023/06/21 09:48:31;;;;;;;8.07;3.37;;;18.90;99.90;;;;;;5032746;28;20487;-83
2023/06/21 09:50:58;;;;;;;5.67;3.73;;;18.90;99.90;;;;;;5032872;28;20820;-83
2023/06/21 09:53:25;;;;;;;10.80;4.23;;;18.90;99.90;;;;;;5032750;28;20446;-83
2023/06/21 09:55:52;;;;;;;2.77;2.50;;;19.00;99.90;;;;;;5034670;28;20451;-83
2023/06/21 09:58:18;;;;;;;7.53;4.53;;;19.00;99.90;;;;;;5036411;28;20572;-83
2023/06/21 10:00:45;;;;;;;6.50;3.30;;;19.00;99.90;;;;;;5036483;28;20450;-83
2023/06/21 10:03:13;;;;;;;3.57;2.93;;;19.10;99.90;;;;;;5036402;28;20450;-83
2023/06/21 10:05:54;;;;;;;10.17;4.30;;;19.10;99.90;;;;;;5036343;28;20451;-83
2023/06/21 10:08:25;;;;;;;3.00;2.77;;;19.10;99.90;;;;;;5035939;28;20614;-82
2023/06/21 10:10:52;;;;;;;4.80;3.23;;;19.10;99.90;;;;;;5035930;28;20446;-82
2023/06/21 10:13:25;;;;;;;6.73;3.03;;;19.00;99.90;;;;;;5036139;28;20446;-83
2023/06/21 10:15:52;;;;;;;4.20;2.57;;;19.00;99.90;;;;;;5036155;28;20431;-82
2023/06/21 10:18:21;;;;;;;4.57;3.77;;;18.90;99.90;;;;;;5036059;28;20458;-82
2023/06/21 10:20:51;;;;;;;4.77;3.27;;;18.90;99.90;;;;;;5036040;28;20450;-83
2023/06/21 10:23:18;;;;;;;6.50;3.50;;;18.80;99.90;;;;;;5036108;28;20526;-82
2023/06/21 10:25:47;;;;;;;2.70;2.10;;;18.90;99.90;;;;;;5035890;28;20442;-82
2023/06/21 10:28:17;;;;;;;3.63;2.57;;;18.90;99.90;;;;;;5035295;28;20843;-83
2023/06/21 10:30:45;;;;;;;2.33;1.80;;;19.00;99.90;;;;;;5036138;28;20466;-82
2023/06/21 10:33:16;;;;;;;7.27;3.33;;;19.10;99.90;;;;;;5035477;28;20458;-82
2023/06/21 10:35:48;;;;;;;5.27;3.53;;;19.10;99.90;;;;;;5035826;28;20450;-82
2023/06/21 10:38:24;;;;;;;10.27;2.93;;;19.00;99.90;;;;;;5035651;28;20462;-82
2023/06/21 10:40:52;;;;;;;5.90;3.80;;;19.10;99.90;;;;;;5035722;28;20438;-82
2023/06/21 10:43:19;;;;;;;11.90;3.90;;;19.00;99.90;;;;;;5035298;28;20968;-82
2023/06/21 10:45:48;;;;;;;5.70;4.03;;;19.00;99.90;;;;;;5035575;28;20450;-78
2023/06/21 10:48:15;;;;;;;8.00;4.57;;;19.10;99.90;;;;;;5035369;28;20493;-78
2023/06/21 10:50:44;;;;;;;5.87;3.07;;;19.20;99.90;;;;;;5035231;28;21000;-78
2023/06/21 10:53:13;;;;;;;7.30;4.40;;;19.30;99.90;;;;;;5035190;28;20439;-78
2023/06/21 10:55:41;;;;;;;11.50;3.00;;;19.40;99.90;;;;;;5035414;28;20446;-78
2023/06/21 10:58:08;;;;;;;7.20;4.43;;;19.50;99.90;;;;;;5035002;28;20498;-82
2023/06/21 11:00:35;;;;;;;6.40;4.33;;;19.60;99.90;;;;;;5035319;28;20496;-79
2023/06/21 11:03:02;;;;;;;9.10;3.93;;;19.60;99.90;;;;;;5035287;28;20454;-78
2023/06/21 11:05:31;;;;;;;6.20;3.47;;;19.60;99.90;;;;;;5035229;28;20462;-78
2023/06/21 11:08:01;;;;;;;7.07;4.40;;;19.80;99.90;;;;;;5033741;28;20490;-78
2023/06/21 11:10:39;;;;;;;7.40;4.73;;;20.00;99.90;;;;;;5035043;28;20450;-78
2023/06/21 11:13:06;;;;;;;7.53;4.40;;;20.40;99.90;;;;;;5035111;28;20434;-78
2023/06/21 11:15:34;;;;;;;6.20;3.40;;;20.60;99.90;;;;;;5034726;28;20446;-79
2023/06/21 11:18:03;;;;;;;10.30;5.07;;;20.80;99.90;;;;;;5034987;28;20469;-79
2023/06/21 11:20:35;;;;;;;5.03;4.13;;;20.90;99.90;;;;;;5034955;28;20477;-78
2023/06/21 11:23:09;;;;;;;10.73;5.30;;;20.90;99.90;;;;;;5035088;28;20430;-79
2023/06/21 11:25:37;;;;;;;6.93;4.87;;;21.20;99.90;;;;;;5034892;28;20437;-79
2023/06/21 11:28:24;;;;;;;4.80;4.27;;;21.30;99.90;;;;;;5034387;28;20490;-79
2023/06/21 11:31:08;;;;;;;5.53;3.63;;;21.60;99.90;;;;;;5034764;28;20495;-80
2023/06/21 11:33:54;;;;;;;6.60;3.90;;;21.60;99.90;;;;;;5034455;28;20447;-79
2023/06/21 11:36:27;;;;;;;8.17;5.17;;;21.90;99.90;;;;;;5034668;28;20489;-79
2023/06/21 11:39:26;;;;;;;5.83;4.13;;;22.10;99.90;;;;;;5034620;28;20430;-79
2023/06/21 11:42:02;;;;;;;8.50;4.50;;;22.10;99.90;;;;;;5034245;28;20545;-80
2023/06/21 11:44:33;;;;;;;5.03;2.87;;;22.30;99.90;;;;;;5034732;28;20913;-79
2023/06/21 11:47:18;;;;;;;5.50;3.87;;;22.50;99.90;;;;;;5034374;28;20545;-79
2023/06/21 11:49:56;;;;;;;3.13;2.83;;;22.50;99.90;;;;;;5034017;28;21004;-79
2023/06/21 11:52:24;;;;;;;4.00;3.10;;;22.60;99.90;;;;;;5034417;28;20234;-79
2023/06/21 11:54:53;;;;;;;4.60;3.67;;;22.60;99.90;;;;;;5034320;28;20211;-79
2023/06/21 11:57:19;;;;;;;4.60;3.43;;;22.60;99.90;;;;;;5034083;28;20462;-81
2023/06/21 11:59:46;;;;;;;6.40;3.20;;;22.70;99.90;;;;;;5034221;28;20203;-81
2023/06/21 12:02:14;;;;;;;7.50;4.43;;;22.70;99.90;;;;;;5034225;28;20195;-80
2023/06/21 12:04:41;;;;;;;3.93;3.30;;;22.60;99.90;;;;;;5033802;28;20438;-80
2023/06/21 12:07:09;;;;;;;6.00;3.70;;;22.70;99.90;;;;;;5034029;28;20470;-80
2023/06/21 12:09:37;;;;;;;4.57;2.97;;;22.80;99.90;;;;;;5033665;28;20214;-80
2023/06/21 12:12:06;;;;;;;3.90;2.70;;;22.70;99.90;;;;;;5033800;28;20552;-81
2023/06/21 12:14:33;;;;;;;5.10;2.80;;;22.70;99.90;;;;;;5033694;28;20693;-81
2023/06/21 12:17:00;;;;;;;3.30;2.77;;;22.70;99.90;;;;;;5033401;28;20714;-81
2023/06/21 12:19:27;;;;;;;4.33;2.67;;;22.80;99.90;;;;;;5033693;28;20249;-81
2023/06/21 12:22:01;;;;;;;2.93;2.43;;;22.90;99.90;;;;;;5033600;28;20203;-81
2023/06/21 12:24:27;;;;;;;4.47;2.70;;;23.00;99.90;;;;;;5033899;28;20188;-81
2023/06/21 12:26:57;;;;;;;4.03;3.20;;;22.90;99.90;;;;;;5033125;28;20588;-81
2023/06/21 12:29:27;;;;;;;3.97;3.10;;;22.90;99.90;;;;;;5034263;28;20211;-80
2023/06/21 12:31:56;;;;;;;3.38;2.30;;;23.00;99.90;;;;;;5033424;28;20203;-80
2023/06/21 12:34:24;;;;;;;3.70;2.63;;;23.10;99.90;;;;;;5033394;28;20230;-80
2023/06/21 12:36:51;;;;;;;4.20;3.10;;;23.30;99.90;;;;;;5033623;28;20227;-80
2023/06/21 12:39:20;;;;;;;3.40;2.60;;;23.30;99.90;;;;;;5033641;28;20257;-80
2023/06/21 12:41:47;;;;;;;4.70;3.30;;;23.40;99.90;;;;;;5033548;28;20290;-80
2023/06/21 12:44:26;;;;;;;2.87;2.47;;;23.40;99.90;;;;;;5033278;28;20647;-81
2023/06/21 12:46:54;;;;;;;3.33;3.03;;;23.50;99.90;;;;;;5033496;28;20227;-81
2023/06/21 12:49:21;;;;;;;3.63;2.95;;;23.60;99.90;;;;;;5033081;28;20679;-81
2023/06/21 12:51:48;;;;;;;4.07;2.60;;;23.70;99.90;;;;;;5033129;28;20667;-81